Time;durP1;ratioP1;P1;durP2;ratioP2;P2;SDS_P1;SDS_P2;PMS_P1;PMS_P2;Temp;Humidity;BMP_temperature;BMP_pressure;BME280_temperature;BME280_humidity;BME280_pressure;Samples;Min_cycle;Max_cycle;Signal;HPM_P1;HPM_P2
2023/08/16 00:00:46;;;;;;;4.67;4.23;;;;;;;;;;6156255;23;20493;-59
2023/08/16 00:03:13;;;;;;;11.13;5.17;;;;;;;;;;6156207;23;20407;-59
2023/08/16 00:05:41;;;;;;;4.50;4.30;;;;;;;;;;6156228;23;20407;-59
2023/08/16 00:08:08;;;;;;;5.20;4.00;;;;;;;;;;6155806;23;20942;-59
2023/08/16 00:10:35;;;;;;;4.67;4.37;;;;;;;;;;6156078;23;20442;-61
2023/08/16 00:13:03;;;;;;;4.20;4.00;;;;;;;;;;6156173;23;20438;-59
2023/08/16 00:15:30;;;;;;;5.07;4.40;;;;;;;;;;6156001;23;20490;-59
2023/08/16 00:17:57;;;;;;;6.33;4.00;;;;;;;;;;6156077;23;20407;-59
2023/08/16 00:20:26;;;;;;;4.50;4.20;;;;;;;;;;6156157;23;20411;-61
2023/08/16 00:22:54;;;;;;;4.57;4.17;;;;;;;;;;6156002;23;20399;-61
2023/08/16 00:25:21;;;;;;;3.80;3.60;;;;;;;;;;6156124;23;20416;-59
2023/08/16 00:27:48;;;;;;;4.63;4.20;;;;;;;;;;6156064;23;20403;-58
2023/08/16 00:30:16;;;;;;;4.87;4.40;;;;;;;;;;6157561;23;20439;-59
2023/08/16 00:32:43;;;;;;;3.93;3.63;;;;;;;;;;6157988;23;20438;-59
2023/08/16 00:35:10;;;;;;;6.43;3.90;;;;;;;;;;6158047;23;20493;-59
2023/08/16 00:37:37;;;;;;;4.20;3.90;;;;;;;;;;6158044;23;20407;-59
2023/08/16 00:40:05;;;;;;;4.47;4.17;;;;;;;;;;6157654;23;20974;-58
2023/08/16 00:42:31;;;;;;;3.90;3.60;;;;;;;;;;6158015;23;20753;-59
2023/08/16 00:45:01;;;;;;;4.70;4.30;;;;;;;;;;6158020;23;20497;-59
2023/08/16 00:47:29;;;;;;;4.40;4.10;;;;;;;;;;6157712;23;20493;-59
2023/08/16 00:49:56;;;;;;;5.03;4.63;;;;;;;;;;6157477;23;20536;-59
2023/08/16 00:52:23;;;;;;;4.97;4.47;;;;;;;;;;6158038;23;20969;-59
2023/08/16 00:54:50;;;;;;;4.43;4.13;;;;;;;;;;6157907;23;20485;-59
2023/08/16 00:57:19;;;;;;;5.90;4.73;;;;;;;;;;6157853;23;20494;-59
2023/08/16 00:59:46;;;;;;;13.33;4.60;;;;;;;;;;6157750;23;20493;-59
2023/08/16 01:02:14;;;;;;;5.03;4.63;;;;;;;;;;6157767;23;20490;-60
2023/08/16 01:04:43;;;;;;;5.37;4.97;;;;;;;;;;6157850;23;20407;-59
2023/08/16 01:07:09;;;;;;;6.27;4.67;;;;;;;;;;6157697;23;20430;-59
2023/08/16 01:09:37;;;;;;;4.80;4.40;;;;;;;;;;6157627;23;20438;-59
2023/08/16 01:12:09;;;;;;;4.70;4.10;;;;;;;;;;6158104;23;20453;-59
2023/08/16 01:14:42;;;;;;;3.77;3.60;;;;;;;;;;6167549;23;20394;-59
2023/08/16 01:17:09;;;;;;;5.30;4.90;;;;;;;;;;6167510;23;20482;-59
2023/08/16 01:19:36;;;;;;;5.73;5.23;;;;;;;;;;6157318;23;20901;-59
2023/08/16 01:22:12;;;;;;;4.60;4.30;;;;;;;;;;6157670;23;20493;-59
2023/08/16 01:24:45;;;;;;;4.83;4.43;;;;;;;;;;6167294;23;20482;-59
2023/08/16 01:27:18;;;;;;;4.47;4.13;;;;;;;;;;6167413;23;20486;-59
2023/08/16 01:29:45;;;;;;;4.87;4.57;;;;;;;;;;6167168;23;20506;-59
2023/08/16 01:32:12;;;;;;;3.93;3.73;;;;;;;;;;6157498;23;20403;-59
2023/08/16 01:34:39;;;;;;;5.70;5.20;;;;;;;;;;6157530;23;20490;-61
2023/08/16 01:37:06;;;;;;;5.30;4.90;;;;;;;;;;6157779;23;20403;-59
2023/08/16 01:39:33;;;;;;;5.13;4.80;;;;;;;;;;6157277;23;20519;-59
2023/08/16 01:42:00;;;;;;;4.87;4.47;;;;;;;;;;6157424;23;20486;-59
2023/08/16 01:44:29;;;;;;;5.30;4.30;;;;;;;;;;6157454;23;20489;-59
2023/08/16 01:46:56;;;;;;;4.90;4.60;;;;;;;;;;6157372;23;20779;-59
2023/08/16 01:49:23;;;;;;;5.10;4.60;;;;;;;;;;6157122;23;20856;-59
2023/08/16 01:51:51;;;;;;;5.60;5.20;;;;;;;;;;6167159;23;20481;-59
2023/08/16 01:54:18;;;;;;;5.00;4.50;;;;;;;;;;6157341;23;20446;-59
2023/08/16 01:56:45;;;;;;;5.00;4.40;;;;;;;;;;6157393;23;20764;-59
2023/08/16 01:59:11;;;;;;;5.10;4.67;;;;;;;;;;6157346;23;20490;-59
2023/08/16 02:01:41;;;;;;;5.10;4.73;;;;;;;;;;6157343;23;20548;-59
2023/08/16 02:04:08;;;;;;;6.17;5.23;;;;;;;;;;6157182;23;20489;-59
2023/08/16 02:06:35;;;;;;;5.13;4.80;;;;;;;;;;6157195;23;20510;-59
2023/08/16 02:09:02;;;;;;;5.43;5.00;;;;;;;;;;6157210;23;20438;-59
2023/08/16 02:11:30;;;;;;;4.83;4.43;;;;;;;;;;6157173;23;20490;-59
2023/08/16 02:13:58;;;;;;;5.23;4.90;;;;;;;;;;6157068;23;20832;-59
2023/08/16 02:16:25;;;;;;;7.80;5.37;;;;;;;;;;6157143;23;20415;-59
2023/08/16 02:18:56;;;;;;;6.20;5.63;;;;;;;;;;6157072;23;20438;-59
2023/08/16 02:21:25;;;;;;;5.20;4.87;;;;;;;;;;6166861;23;20402;-60
2023/08/16 02:23:52;;;;;;;6.20;5.70;;;;;;;;;;6156969;23;20482;-59
2023/08/16 02:26:19;;;;;;;5.80;5.20;;;;;;;;;;6157092;23;20442;-59
2023/08/16 02:28:45;;;;;;;5.27;4.90;;;;;;;;;;6157041;23;20418;-59
2023/08/16 02:31:12;;;;;;;5.03;4.63;;;;;;;;;;6156986;23;20470;-60
2023/08/16 02:33:39;;;;;;;6.00;5.43;;;;;;;;;;6157035;23;20506;-59
2023/08/16 02:36:07;;;;;;;5.07;4.77;;;;;;;;;;6156939;23;20494;-59
2023/08/16 02:38:34;;;;;;;5.57;5.20;;;;;;;;;;6156929;23;20491;-59
2023/08/16 02:41:01;;;;;;;5.57;5.03;;;;;;;;;;6156904;23;20445;-59
2023/08/16 02:43:28;;;;;;;6.47;5.97;;;;;;;;;;6156815;23;20407;-59
2023/08/16 02:45:55;;;;;;;5.47;5.07;;;;;;;;;;6156798;23;20494;-59
2023/08/16 02:48:22;;;;;;;5.77;5.37;;;;;;;;;;6156806;23;20477;-59
2023/08/16 02:50:49;;;;;;;6.93;6.23;;;;;;;;;;6156401;23;20533;-59
2023/08/16 02:53:18;;;;;;;5.70;5.30;;;;;;;;;;6156370;23;20465;-59
2023/08/16 02:55:45;;;;;;;6.30;5.70;;;;;;;;;;6156727;23;20407;-59
2023/08/16 02:58:11;;;;;;;6.43;5.93;;;;;;;;;;6156769;23;20473;-59
2023/08/16 03:00:39;;;;;;;6.87;6.37;;;;;;;;;;6156362;23;20434;-59
2023/08/16 03:03:06;;;;;;;8.00;6.63;;;;;;;;;;6156703;23;20486;-59
2023/08/16 03:05:33;;;;;;;6.13;5.60;;;;;;;;;;6156694;23;20414;-59
2023/08/16 03:08:00;;;;;;;7.87;6.47;;;;;;;;;;6156259;23;20989;-59
2023/08/16 03:10:28;;;;;;;5.90;5.40;;;;;;;;;;6156481;23;20513;-59
2023/08/16 03:12:57;;;;;;;6.60;5.87;;;;;;;;;;6156474;23;20498;-60
2023/08/16 03:15:24;;;;;;;6.30;5.90;;;;;;;;;;6156479;23;20966;-59
2023/08/16 03:17:51;;;;;;;8.30;6.63;;;;;;;;;;6156540;23;20407;-59
2023/08/16 03:20:18;;;;;;;8.03;6.87;;;;;;;;;;6156537;23;20434;-59
2023/08/16 03:22:44;;;;;;;6.70;6.20;;;;;;;;;;6156545;23;20791;-59
2023/08/16 03:25:13;;;;;;;10.27;7.57;;;;;;;;;;6156465;23;20498;-59
2023/08/16 03:27:41;;;;;;;7.43;6.73;;;;;;;;;;6156258;23;20490;-60
2023/08/16 03:30:09;;;;;;;6.63;6.10;;;;;;;;;;6156496;23;20876;-60
2023/08/16 03:32:35;;;;;;;7.00;6.40;;;;;;;;;;6155988;23;20895;-59
2023/08/16 03:35:02;;;;;;;7.47;6.40;;;;;;;;;;6156291;23;20407;-59
2023/08/16 03:37:31;;;;;;;7.10;6.50;;;;;;;;;;6156371;23;20490;-59
2023/08/16 03:39:59;;;;;;;8.50;7.70;;;;;;;;;;6165620;23;20411;-60
2023/08/16 03:42:25;;;;;;;6.70;6.20;;;;;;;;;;6156378;23;20450;-60
2023/08/16 03:44:54;;;;;;;6.97;6.33;;;;;;;;;;6156346;23;20494;-60
2023/08/16 03:47:21;;;;;;;7.07;6.47;;;;;;;;;;6156232;23;20498;-60
2023/08/16 03:49:47;;;;;;;6.80;6.20;;;;;;;;;;6155811;23;20431;-60
2023/08/16 03:52:16;;;;;;;8.30;6.93;;;;;;;;;;6156321;23;20836;-60
2023/08/16 03:54:43;;;;;;;7.00;6.40;;;;;;;;;;6156088;23;20490;-61
2023/08/16 03:57:10;;;;;;;9.50;7.00;;;;;;;;;;6156212;23;20445;-60
2023/08/16 03:59:37;;;;;;;9.50;6.87;;;;;;;;;;6156104;23;20970;-60
2023/08/16 04:02:05;;;;;;;7.90;7.20;;;;;;;;;;6156180;23;20490;-60
2023/08/16 04:04:32;;;;;;;7.43;6.93;;;;;;;;;;6156020;23;20486;-60
2023/08/16 04:06:59;;;;;;;7.37;6.67;;;;;;;;;;6155796;23;20920;-60
2023/08/16 04:09:26;;;;;;;7.37;6.77;;;;;;;;;;6156028;23;20403;-60
2023/08/16 04:11:53;;;;;;;8.27;7.37;;;;;;;;;;6156003;23;20492;-61
2023/08/16 04:14:20;;;;;;;7.50;6.90;;;;;;;;;;6156168;23;20494;-60
2023/08/16 04:16:47;;;;;;;7.10;6.40;;;;;;;;;;6156094;23;20494;-60
2023/08/16 04:19:15;;;;;;;7.23;6.80;;;;;;;;;;6156013;23;20407;-60
2023/08/16 04:21:42;;;;;;;7.27;6.73;;;;;;;;;;6156213;23;20494;-60
2023/08/16 04:24:09;;;;;;;7.17;6.67;;;;;;;;;;6156079;23;20415;-60
2023/08/16 04:26:36;;;;;;;7.77;6.93;;;;;;;;;;6156056;23;20863;-60
2023/08/16 04:29:04;;;;;;;6.90;6.30;;;;;;;;;;6155981;23;20411;-60
2023/08/16 04:31:31;;;;;;;7.07;6.47;;;;;;;;;;6155846;23;20445;-60
2023/08/16 04:33:57;;;;;;;6.80;6.10;;;;;;;;;;6156027;23;20489;-60
2023/08/16 04:36:26;;;;;;;7.27;6.73;;;;;;;;;;6155949;23;20497;-60
2023/08/16 04:38:53;;;;;;;8.40;7.70;;;;;;;;;;6155899;23;20760;-61
2023/08/16 04:41:20;;;;;;;7.83;7.23;;;;;;;;;;6155968;23;20485;-60
2023/08/16 04:43:46;;;;;;;9.13;8.23;;;;;;;;;;6155961;23;20406;-60
2023/08/16 04:46:14;;;;;;;7.83;7.10;;;;;;;;;;6155941;23;20454;-60
2023/08/16 04:48:40;;;;;;;7.00;6.60;;;;;;;;;;6155929;23;20482;-60
2023/08/16 04:51:07;;;;;;;8.40;6.63;;;;;;;;;;6155313;23;20482;-60
2023/08/16 04:53:35;;;;;;;155.63;33.53;;;;;;;;;;6155913;23;20494;-60
2023/08/16 04:56:02;;;;;;;8.77;7.80;;;;;;;;;;6155798;23;20498;-61
2023/08/16 04:58:30;;;;;;;8.73;7.67;;;;;;;;;;6155516;23;20903;-61
2023/08/16 05:00:57;;;;;;;7.60;7.00;;;;;;;;;;6155894;23;20407;-61
2023/08/16 05:03:24;;;;;;;8.27;7.67;;;;;;;;;;6155781;23;20442;-61
2023/08/16 05:05:56;;;;;;;7.73;7.13;;;;;;;;;;6155683;23;20494;-60
2023/08/16 05:08:23;;;;;;;8.90;7.57;;;;;;;;;;6165907;23;20402;-61
2023/08/16 05:10:51;;;;;;;7.90;7.30;;;;;;;;;;6155409;23;21012;-60
2023/08/16 05:13:19;;;;;;;8.30;7.70;;;;;;;;;;6155455;23;20989;-60
2023/08/16 05:15:46;;;;;;;7.13;6.43;;;;;;;;;;6156822;23;20790;-60
2023/08/16 05:18:13;;;;;;;7.80;7.10;;;;;;;;;;6157644;23;20497;-61
2023/08/16 05:20:40;;;;;;;7.80;7.30;;;;;;;;;;6157614;23;20410;-61
2023/08/16 05:23:07;;;;;;;9.07;7.90;;;;;;;;;;6157335;23;21125;-60
2023/08/16 05:25:34;;;;;;;8.00;7.30;;;;;;;;;;6157562;23;20434;-60
2023/08/16 05:28:02;;;;;;;7.87;7.27;;;;;;;;;;6157520;23;20489;-60
2023/08/16 05:30:29;;;;;;;14.40;8.03;;;;;;;;;;6157405;23;20498;-60
2023/08/16 05:32:56;;;;;;;8.33;7.50;;;;;;;;;;6157558;23;20407;-61
2023/08/16 05:35:23;;;;;;;9.10;8.10;;;;;;;;;;6157418;23;20414;-61
2023/08/16 05:37:51;;;;;;;8.67;7.87;;;;;;;;;;6157416;23;20894;-60
2023/08/16 05:40:19;;;;;;;8.47;7.73;;;;;;;;;;6157331;23;20411;-60
2023/08/16 05:42:45;;;;;;;8.50;6.60;;;;;;;;;;6157172;23;20414;-60
2023/08/16 05:45:14;;;;;;;7.10;6.50;;;;;;;;;;6156854;23;20494;-60
2023/08/16 05:47:41;;;;;;;8.40;7.60;;;;;;;;;;6156706;23;21094;-60
2023/08/16 05:50:08;;;;;;;7.77;7.03;;;;;;;;;;6156945;23;20828;-60
2023/08/16 05:52:34;;;;;;;8.37;7.57;;;;;;;;;;6156843;23;20521;-60
2023/08/16 05:55:01;;;;;;;7.77;6.73;;;;;;;;;;6156626;23;20950;-60
2023/08/16 05:57:28;;;;;;;9.43;7.57;;;;;;;;;;6157085;23;20434;-60
2023/08/16 05:59:55;;;;;;;7.63;7.03;;;;;;;;;;6157198;23;20497;-60
2023/08/16 06:02:23;;;;;;;8.20;7.53;;;;;;;;;;6157006;23;20824;-61
2023/08/16 06:04:52;;;;;;;6.67;6.17;;;;;;;;;;6156943;23;20495;-61
2023/08/16 06:07:19;;;;;;;6.43;6.00;;;;;;;;;;6157102;23;20957;-61
2023/08/16 06:09:46;;;;;;;7.00;6.50;;;;;;;;;;6157198;23;20493;-60
2023/08/16 06:12:13;;;;;;;6.97;6.40;;;;;;;;;;6157053;23;20443;-60
2023/08/16 06:14:40;;;;;;;7.50;6.80;;;;;;;;;;6157070;23;20792;-60
2023/08/16 06:17:06;;;;;;;7.63;6.80;;;;;;;;;;6157143;23;20744;-60
2023/08/16 06:19:35;;;;;;;6.57;5.97;;;;;;;;;;6157002;23;20482;-60
2023/08/16 06:22:02;;;;;;;7.67;6.77;;;;;;;;;;6157102;23;20490;-60
2023/08/16 06:24:34;;;;;;;6.13;5.60;;;;;;;;;;6157353;23;20442;-60
2023/08/16 06:27:01;;;;;;;6.90;6.40;;;;;;;;;;6166602;23;20478;-60
2023/08/16 06:29:28;;;;;;;7.00;6.10;;;;;;;;;;6156989;23;20490;-60
2023/08/16 06:31:55;;;;;;;7.50;6.43;;;;;;;;;;6156718;23;20439;-60
2023/08/16 06:34:24;;;;;;;8.63;5.87;;;;;;;;;;6156813;23;20407;-60
2023/08/16 06:36:52;;;;;;;6.47;5.97;;;;;;;;;;6156714;23;20403;-60
2023/08/16 06:39:19;;;;;;;7.50;6.10;;;;;;;;;;6156737;23;20410;-60
2023/08/16 06:41:48;;;;;;;6.67;6.00;;;;;;;;;;6156673;23;20409;-60
2023/08/16 06:44:15;;;;;;;7.30;6.60;;;;;;;;;;6156527;23;20438;-60
2023/08/16 06:46:42;;;;;;;8.70;5.40;;;;;;;;;;6156237;23;20922;-60
2023/08/16 06:49:09;;;;;;;6.90;6.40;;;;;;;;;;6156458;23;20514;-60
2023/08/16 06:51:38;;;;;;;8.50;6.23;;;;;;;;;;6166604;23;20522;-60
2023/08/16 06:54:06;;;;;;;6.87;6.27;;;;;;;;;;6156497;23;20499;-60
2023/08/16 06:56:33;;;;;;;6.93;6.23;;;;;;;;;;6156534;23;20623;-61
2023/08/16 06:59:00;;;;;;;8.10;6.60;;;;;;;;;;6156956;23;20490;-60
2023/08/16 07:01:27;;;;;;;7.67;6.97;;;;;;;;;;6156444;23;20485;-60
2023/08/16 07:03:56;;;;;;;9.00;7.40;;;;;;;;;;6156207;23;20467;-60
2023/08/16 07:06:23;;;;;;;6.90;6.40;;;;;;;;;;6156398;23;20445;-60
2023/08/16 07:08:50;;;;;;;7.83;7.07;;;;;;;;;;6156396;23;20486;-60
2023/08/16 07:11:20;;;;;;;7.63;6.93;;;;;;;;;;6156307;23;20437;-61
2023/08/16 07:13:48;;;;;;;8.50;7.13;;;;;;;;;;6156408;23;20490;-61
2023/08/16 07:16:16;;;;;;;7.20;6.60;;;;;;;;;;6156546;23;20732;-60
2023/08/16 07:18:43;;;;;;;9.03;6.10;;;;;;;;;;6155944;23;20974;-60
2023/08/16 07:21:10;;;;;;;6.87;6.27;;;;;;;;;;6156348;23;20407;-60
2023/08/16 07:23:36;;;;;;;9.07;7.60;;;;;;;;;;6156348;23;20407;-61
2023/08/16 07:26:03;;;;;;;6.67;6.00;;;;;;;;;;6156416;23;20523;-61
2023/08/16 07:28:32;;;;;;;6.90;6.30;;;;;;;;;;6156288;23;20490;-61
2023/08/16 07:30:59;;;;;;;6.83;6.33;;;;;;;;;;6156093;23;20498;-61
2023/08/16 07:33:25;;;;;;;7.63;6.93;;;;;;;;;;6156228;23;20418;-61
2023/08/16 07:35:52;;;;;;;8.07;7.47;;;;;;;;;;6156269;23;20501;-61
2023/08/16 07:38:19;;;;;;;7.13;6.53;;;;;;;;;;6156305;23;20442;-61
2023/08/16 07:40:49;;;;;;;7.43;6.77;;;;;;;;;;6156074;23;20493;-60
2023/08/16 07:43:16;;;;;;;6.87;6.37;;;;;;;;;;6156239;23;20415;-60
2023/08/16 07:45:44;;;;;;;7.07;6.47;;;;;;;;;;6156123;23;20406;-61
2023/08/16 07:48:11;;;;;;;6.70;6.10;;;;;;;;;;6156067;23;20497;-61
2023/08/16 07:50:38;;;;;;;6.80;6.30;;;;;;;;;;6155811;23;20692;-61
2023/08/16 07:53:06;;;;;;;5.83;5.30;;;;;;;;;;6155859;23;20501;-61
2023/08/16 07:55:33;;;;;;;8.20;6.67;;;;;;;;;;6156116;23;20787;-62
2023/08/16 07:58:01;;;;;;;6.57;6.07;;;;;;;;;;6155984;23;20403;-62
2023/08/16 08:00:29;;;;;;;5.97;5.33;;;;;;;;;;6155999;23;20411;-62
2023/08/16 08:02:57;;;;;;;6.60;6.00;;;;;;;;;;6156117;23;20411;-62
2023/08/16 08:05:24;;;;;;;7.50;6.20;;;;;;;;;;6155891;23;20462;-62
2023/08/16 08:07:53;;;;;;;8.33;6.73;;;;;;;;;;6156069;23;20411;-64
2023/08/16 08:10:20;;;;;;;6.77;6.20;;;;;;;;;;6155783;23;20418;-62
2023/08/16 08:12:47;;;;;;;6.40;5.83;;;;;;;;;;6155726;23;21009;-62
2023/08/16 08:15:14;;;;;;;7.43;5.30;;;;;;;;;;6155873;23;20494;-62
2023/08/16 08:17:41;;;;;;;6.50;5.93;;;;;;;;;;6155897;23;20502;-62
2023/08/16 08:20:14;;;;;;;7.43;6.43;;;;;;;;;;6155660;23;20898;-61
2023/08/16 08:22:40;;;;;;;7.37;5.77;;;;;;;;;;6165634;23;20402;-61
2023/08/16 08:25:08;;;;;;;7.27;5.67;;;;;;;;;;6155896;23;20402;-62
2023/08/16 08:27:36;;;;;;;5.77;5.30;;;;;;;;;;6155817;23;20438;-62
2023/08/16 08:30:03;;;;;;;6.63;5.90;;;;;;;;;;6165524;23;20474;-63
2023/08/16 08:32:30;;;;;;;5.83;5.33;;;;;;;;;;6156113;23;20529;-62
2023/08/16 08:34:58;;;;;;;8.60;6.20;;;;;;;;;;6155796;23;20441;-62
2023/08/16 08:37:27;;;;;;;6.17;5.57;;;;;;;;;;6155796;23;20574;-62
2023/08/16 08:39:54;;;;;;;5.43;5.03;;;;;;;;;;6155811;23;20469;-63
2023/08/16 08:42:22;;;;;;;5.87;4.53;;;;;;;;;;6155848;23;20411;-61
2023/08/16 08:44:51;;;;;;;5.13;4.77;;;;;;;;;;6155839;23;20485;-63
2023/08/16 08:47:18;;;;;;;5.67;5.17;;;;;;;;;;6155697;23;20485;-61
2023/08/16 08:49:45;;;;;;;8.03;5.37;;;;;;;;;;6155914;23;20509;-61
2023/08/16 08:52:12;;;;;;;6.07;4.37;;;;;;;;;;6157761;23;20446;-62
2023/08/16 08:54:41;;;;;;;5.40;4.80;;;;;;;;;;6157564;23;20407;-62
2023/08/16 08:57:08;;;;;;;4.57;4.27;;;;;;;;;;6157688;23;20498;-62
2023/08/16 08:59:38;;;;;;;4.97;4.57;;;;;;;;;;6157396;23;20407;-63
2023/08/16 09:02:05;;;;;;;4.33;3.93;;;;;;;;;;6166989;23;20490;-62
2023/08/16 09:04:34;;;;;;;4.93;4.43;;;;;;;;;;6157728;23;20978;-62
2023/08/16 09:07:04;;;;;;;4.53;4.23;;;;;;;;;;6157571;23;20494;-61
2023/08/16 09:09:31;;;;;;;4.20;3.80;;;;;;;;;;6167365;23;20693;-61
2023/08/16 09:11:59;;;;;;;5.03;3.90;;;;;;;;;;6157670;23;20534;-63
2023/08/16 09:14:27;;;;;;;3.97;3.67;;;;;;;;;;6157459;23;20494;-62
2023/08/16 09:16:54;;;;;;;5.47;3.60;;;;;;;;;;6157540;23;20429;-62
2023/08/16 09:19:21;;;;;;;4.03;3.73;;;;;;;;;;6157458;23;20489;-62
2023/08/16 09:21:48;;;;;;;4.27;3.93;;;;;;;;;;6157568;23;20775;-62
2023/08/16 09:24:15;;;;;;;3.47;3.27;;;;;;;;;;6157834;23;20870;-62
2023/08/16 09:26:46;;;;;;;3.37;3.07;;;;;;;;;;6157419;23;20410;-62
2023/08/16 09:29:17;;;;;;;3.50;3.20;;;;;;;;;;6167200;23;20406;-61
2023/08/16 09:31:46;;;;;;;3.63;3.20;;;;;;;;;;6167112;23;20419;-61
2023/08/16 09:34:13;;;;;;;3.47;3.13;;;;;;;;;;6157276;23;20453;-62
2023/08/16 09:36:42;;;;;;;3.93;3.50;;;;;;;;;;6157207;23;20410;-60
2023/08/16 09:39:10;;;;;;;3.30;3.10;;;;;;;;;;6156983;23;20413;-59
2023/08/16 09:41:38;;;;;;;3.43;3.13;;;;;;;;;;6157347;23;20917;-61
2023/08/16 09:44:05;;;;;;;3.53;3.23;;;;;;;;;;6157154;23;20411;-61
2023/08/16 09:46:34;;;;;;;3.57;3.37;;;;;;;;;;6157198;23;20441;-62
2023/08/16 09:49:06;;;;;;;3.73;3.40;;;;;;;;;;6156981;23;20498;-61
2023/08/16 09:51:34;;;;;;;3.63;3.33;;;;;;;;;;6167194;23;20410;-62
2023/08/16 09:54:03;;;;;;;3.90;3.60;;;;;;;;;;6157064;23;20446;-61
2023/08/16 09:56:32;;;;;;;3.33;3.13;;;;;;;;;;6156931;23;20493;-61
2023/08/16 09:59:00;;;;;;;3.50;3.20;;;;;;;;;;6157302;23;20490;-61
2023/08/16 10:01:27;;;;;;;3.17;2.97;;;;;;;;;;6156726;23;20418;-63
2023/08/16 10:03:56;;;;;;;3.37;3.13;;;;;;;;;;6156891;23;20420;-61
2023/08/16 10:06:23;;;;;;;3.13;2.93;;;;;;;;;;6157097;23;20883;-62
2023/08/16 10:08:50;;;;;;;2.80;2.30;;;;;;;;;;6157119;23;20418;-62
2023/08/16 10:11:17;;;;;;;3.30;3.10;;;;;;;;;;6157198;23;20415;-62
2023/08/16 10:13:45;;;;;;;3.30;3.00;;;;;;;;;;6156873;23;20489;-61
2023/08/16 10:16:12;;;;;;;3.60;3.30;;;;;;;;;;6156970;23;20767;-62
2023/08/16 10:18:40;;;;;;;3.50;3.13;;;;;;;;;;6156963;23;20776;-63
2023/08/16 10:21:10;;;;;;;3.73;3.00;;;;;;;;;;6156445;23;20965;-61
2023/08/16 10:23:41;;;;;;;2.70;2.60;;;;;;;;;;6156673;23;20450;-60
2023/08/16 10:26:10;;;;;;;3.00;2.87;;;;;;;;;;6166606;23;20395;-60
2023/08/16 10:28:37;;;;;;;2.93;2.73;;;;;;;;;;6156562;23;20438;-60
2023/08/16 10:31:05;;;;;;;3.40;3.10;;;;;;;;;;6157061;23;20555;-63
2023/08/16 10:33:33;;;;;;;3.47;3.17;;;;;;;;;;6156716;23;20526;-63
2023/08/16 10:36:00;;;;;;;3.33;3.00;;;;;;;;;;6156405;23;20961;-61
2023/08/16 10:38:36;;;;;;;3.37;3.13;;;;;;;;;;6156694;23;20490;-62
2023/08/16 10:41:04;;;;;;;2.70;2.50;;;;;;;;;;6166450;23;20406;-61
2023/08/16 10:43:32;;;;;;;2.90;2.70;;;;;;;;;;6156648;23;20943;-59
2023/08/16 10:45:59;;;;;;;2.93;2.73;;;;;;;;;;6156623;23;20407;-59
2023/08/16 10:48:28;;;;;;;3.30;3.07;;;;;;;;;;6156250;23;20887;-59
2023/08/16 10:50:56;;;;;;;3.37;3.10;;;;;;;;;;6155863;23;20514;-59
2023/08/16 10:53:25;;;;;;;3.90;3.30;;;;;;;;;;6156392;23;20442;-61
2023/08/16 10:55:55;;;;;;;3.27;3.07;;;;;;;;;;6156347;23;20728;-58
2023/08/16 10:58:23;;;;;;;3.07;2.77;;;;;;;;;;6156472;23;20794;-59
2023/08/16 11:00:58;;;;;;;3.30;3.00;;;;;;;;;;6156006;23;20911;-59
2023/08/16 11:03:37;;;;;;;2.90;2.60;;;;;;;;;;6166209;23;20422;-60
2023/08/16 11:06:08;;;;;;;3.43;3.13;;;;;;;;;;6166288;23;20402;-60
2023/08/16 11:08:38;;;;;;;2.90;2.70;;;;;;;;;;6166258;23;20711;-60
2023/08/16 11:11:06;;;;;;;2.50;2.37;;;;;;;;;;6156326;23;20434;-59
2023/08/16 11:13:34;;;;;;;2.30;2.13;;;;;;;;;;6156373;23;20526;-59
2023/08/16 11:16:01;;;;;;;3.10;2.90;;;;;;;;;;6156020;23;20950;-60
2023/08/16 11:18:29;;;;;;;4.37;2.30;;;;;;;;;;6156294;23;20709;-61
2023/08/16 11:20:59;;;;;;;2.90;2.60;;;;;;;;;;6156318;23;20447;-59
2023/08/16 11:23:32;;;;;;;2.70;2.50;;;;;;;;;;6155939;23;20406;-59
2023/08/16 11:26:00;;;;;;;2.97;2.50;;;;;;;;;;6166015;23;20426;-59
2023/08/16 11:28:28;;;;;;;2.23;2.10;;;;;;;;;;6156366;23;20411;-59
2023/08/16 11:30:58;;;;;;;3.00;2.40;;;;;;;;;;6156113;23;20489;-60
2023/08/16 11:33:25;;;;;;;2.83;2.47;;;;;;;;;;6156028;23;20525;-60
2023/08/16 11:35:55;;;;;;;2.40;2.20;;;;;;;;;;6156039;23;20411;-60
2023/08/16 11:38:23;;;;;;;2.43;2.30;;;;;;;;;;6155835;23;20493;-60
2023/08/16 11:40:50;;;;;;;2.17;2.07;;;;;;;;;;6155947;23;20403;-59
2023/08/16 11:43:21;;;;;;;2.30;2.20;;;;;;;;;;6156103;23;20407;-59
2023/08/16 11:45:53;;;;;;;2.73;2.50;;;;;;;;;;6165722;23;20482;-60
2023/08/16 11:48:20;;;;;;;3.80;2.73;;;;;;;;;;6165852;23;20685;-61
2023/08/16 11:50:48;;;;;;;2.73;2.57;;;;;;;;;;6155401;23;20431;-59
2023/08/16 11:53:19;;;;;;;2.63;2.43;;;;;;;;;;6155830;23;20521;-59
2023/08/16 11:55:58;;;;;;;2.33;2.23;;;;;;;;;;6165793;23;20437;-60
2023/08/16 11:58:25;;;;;;;2.80;2.57;;;;;;;;;;6165882;23;20401;-58
2023/08/16 12:00:53;;;;;;;2.63;2.20;;;;;;;;;;6156028;23;20407;-60
2023/08/16 12:03:20;;;;;;;2.73;2.50;;;;;;;;;;6155980;23;20498;-60
2023/08/16 12:05:49;;;;;;;2.77;1.97;;;;;;;;;;6155959;23;20579;-60
2023/08/16 12:08:20;;;;;;;2.37;2.20;;;;;;;;;;6155819;23;20723;-59
2023/08/16 12:10:54;;;;;;;2.23;2.13;;;;;;;;;;6165747;23;20395;-60
2023/08/16 12:13:21;;;;;;;3.23;2.37;;;;;;;;;;6165514;23;20437;-60
2023/08/16 12:15:48;;;;;;;3.37;2.00;;;;;;;;;;6155884;23;20498;-59
2023/08/16 12:18:17;;;;;;;2.10;2.00;;;;;;;;;;6155881;23;20777;-59
2023/08/16 12:20:49;;;;;;;4.50;2.27;;;;;;;;;;6155674;23;20403;-59
2023/08/16 12:23:16;;;;;;;2.17;2.07;;;;;;;;;;6165545;23;20465;-59
2023/08/16 12:25:43;;;;;;;2.80;2.60;;;;;;;;;;6159226;23;20485;-59
2023/08/16 12:28:10;;;;;;;2.33;2.13;;;;;;;;;;6159251;23;20490;-58
2023/08/16 12:30:37;;;;;;;2.60;2.40;;;;;;;;;;6158729;23;20485;-59
2023/08/16 12:33:04;;;;;;;3.47;2.47;;;;;;;;;;6159154;23;20453;-59
2023/08/16 12:35:32;;;;;;;4.00;2.20;;;;;;;;;;6159195;23;20411;-59
2023/08/16 12:38:02;;;;;;;2.70;2.50;;;;;;;;;;6159146;23;20457;-59
2023/08/16 12:40:31;;;;;;;3.00;1.93;;;;;;;;;;6168619;23;20708;-59
2023/08/16 12:43:00;;;;;;;3.80;2.30;;;;;;;;;;6168478;23;20410;-59
2023/08/16 12:45:27;;;;;;;2.47;2.27;;;;;;;;;;6158983;23;20489;-59
2023/08/16 12:47:54;;;;;;;2.40;2.20;;;;;;;;;;6159236;23;20413;-59
2023/08/16 12:50:22;;;;;;;3.10;2.40;;;;;;;;;;6158646;23;20958;-59
2023/08/16 12:52:52;;;;;;;2.20;2.00;;;;;;;;;;6158995;23;20494;-59
2023/08/16 12:55:19;;;;;;;2.00;1.90;;;;;;;;;;6168498;23;20509;-59
2023/08/16 12:57:46;;;;;;;2.20;2.03;;;;;;;;;;6159071;23;20489;-59
2023/08/16 13:00:13;;;;;;;2.43;1.90;;;;;;;;;;6158880;23;20498;-58
2023/08/16 13:02:40;;;;;;;4.53;2.40;;;;;;;;;;6158901;23;20462;-59
2023/08/16 13:05:08;;;;;;;2.50;2.33;;;;;;;;;;6158979;23;20519;-59
2023/08/16 13:07:35;;;;;;;2.23;2.13;;;;;;;;;;6158885;23;20724;-59
2023/08/16 13:10:04;;;;;;;2.20;2.10;;;;;;;;;;6159073;23;20407;-61
2023/08/16 13:12:31;;;;;;;3.40;2.43;;;;;;;;;;6159006;23;20417;-61
2023/08/16 13:14:57;;;;;;;3.40;2.30;;;;;;;;;;6158963;23;20438;-60
2023/08/16 13:17:24;;;;;;;2.47;2.20;;;;;;;;;;6158899;23;20485;-61
2023/08/16 13:19:51;;;;;;;2.60;2.47;;;;;;;;;;6158993;23;20434;-60
2023/08/16 13:22:18;;;;;;;2.00;1.90;;;;;;;;;;6159042;23;20489;-61
2023/08/16 13:24:45;;;;;;;3.13;2.93;;;;;;;;;;6159154;23;20493;-60
2023/08/16 13:27:13;;;;;;;2.33;2.13;;;;;;;;;;6158935;23;20497;-60
2023/08/16 13:29:40;;;;;;;2.50;2.40;;;;;;;;;;6158825;23;20417;-60
2023/08/16 13:32:09;;;;;;;2.07;1.97;;;;;;;;;;6158909;23;20783;-60
2023/08/16 13:34:36;;;;;;;2.50;2.40;;;;;;;;;;6158763;23;20554;-60
2023/08/16 13:37:03;;;;;;;2.43;2.23;;;;;;;;;;6156816;23;20442;-60
2023/08/16 13:39:31;;;;;;;2.63;2.43;;;;;;;;;;6157403;23;20736;-60
2023/08/16 13:41:58;;;;;;;2.60;2.40;;;;;;;;;;6157416;23;20422;-60
2023/08/16 13:44:26;;;;;;;2.03;1.90;;;;;;;;;;6157206;23;20490;-60
2023/08/16 13:46:53;;;;;;;2.40;2.30;;;;;;;;;;6157325;23;20410;-60
2023/08/16 13:49:20;;;;;;;2.80;2.57;;;;;;;;;;6157182;23;20567;-60
2023/08/16 13:51:47;;;;;;;2.40;2.30;;;;;;;;;;6167039;23;20764;-60
2023/08/16 13:54:14;;;;;;;3.00;2.40;;;;;;;;;;6157140;23;20521;-60
2023/08/16 13:56:41;;;;;;;2.00;1.90;;;;;;;;;;6157228;23;20493;-60
2023/08/16 13:59:08;;;;;;;2.77;2.40;;;;;;;;;;6157252;23;20445;-60
2023/08/16 14:01:36;;;;;;;2.33;2.23;;;;;;;;;;6157137;23;20411;-61
2023/08/16 14:04:06;;;;;;;2.20;2.10;;;;;;;;;;6157121;23;20529;-60
2023/08/16 14:06:35;;;;;;;2.20;2.10;;;;;;;;;;6166838;23;20399;-60
2023/08/16 14:09:03;;;;;;;2.33;2.13;;;;;;;;;;6157081;23;20407;-60
2023/08/16 14:11:30;;;;;;;2.40;2.20;;;;;;;;;;6157000;23;20407;-60
2023/08/16 14:13:57;;;;;;;2.57;2.13;;;;;;;;;;6156898;23;20518;-61
2023/08/16 14:16:24;;;;;;;2.50;2.30;;;;;;;;;;6156652;23;20855;-60
2023/08/16 14:18:53;;;;;;;2.57;2.17;;;;;;;;;;6156733;23;20906;-60
2023/08/16 14:21:20;;;;;;;2.37;2.17;;;;;;;;;;6156826;23;20406;-60
2023/08/16 14:23:47;;;;;;;2.30;2.03;;;;;;;;;;6156978;23;20494;-60
2023/08/16 14:26:18;;;;;;;1.90;1.80;;;;;;;;;;6156874;23;20485;-60
2023/08/16 14:28:45;;;;;;;2.23;2.13;;;;;;;;;;6166225;23;20902;-60
2023/08/16 14:31:12;;;;;;;2.57;1.93;;;;;;;;;;6157000;23;20486;-60
2023/08/16 14:33:38;;;;;;;3.57;2.10;;;;;;;;;;6156875;23;20792;-60
2023/08/16 14:36:07;;;;;;;2.13;2.03;;;;;;;;;;6156882;23;20492;-60
2023/08/16 14:38:34;;;;;;;2.97;2.10;;;;;;;;;;6156326;23;20949;-60
2023/08/16 14:41:00;;;;;;;2.37;2.27;;;;;;;;;;6156859;23;20431;-60
2023/08/16 14:43:27;;;;;;;2.90;2.67;;;;;;;;;;6156808;23;20490;-60
2023/08/16 14:45:56;;;;;;;2.80;2.70;;;;;;;;;;6156759;23;20417;-60